createdAt,value
2019-03-13T00:06:10.591Z,34.00
2019-03-13T00:12:55.911Z,39.10
2019-03-13T00:19:40.834Z,42.40
2019-03-13T00:26:25.842Z,41.70
2019-03-13T00:33:10.846Z,45.60
2019-03-13T00:39:56.500Z,46.80
2019-03-13T00:46:41.701Z,45.80
2019-03-13T00:53:27.150Z,44.40
2019-03-13T01:00:14.201Z,45.00
2019-03-13T01:07:00.110Z,46.10
2019-03-13T01:13:46.298Z,47.00
2019-03-13T01:20:31.968Z,46.50
2019-03-13T01:27:17.153Z,46.60
2019-03-13T01:34:10.000Z,46.40
2019-03-13T01:40:55.960Z,46.50
2019-03-13T01:47:41.046Z,46.20
2019-03-13T01:54:25.898Z,46.10
2019-03-13T02:01:10.813Z,45.50
2019-03-13T02:07:55.663Z,45.20
2019-03-13T02:14:40.672Z,44.80
2019-03-13T02:21:25.595Z,45.40
2019-03-13T02:28:10.441Z,45.60
2019-03-13T02:34:55.477Z,46.60
2019-03-13T02:41:40.396Z,46.90
2019-03-13T02:48:25.329Z,47.20
2019-03-13T02:55:11.115Z,47.10
2019-03-13T03:01:59.515Z,47.20
2019-03-13T03:08:44.438Z,47.70
2019-03-13T03:15:29.538Z,48.40
2019-03-13T03:22:14.383Z,49.20
2019-03-13T03:28:59.291Z,49.80
2019-03-13T03:35:44.135Z,49.70
2019-03-13T03:42:28.980Z,49.50
2019-03-13T03:49:13.900Z,49.80
2019-03-13T03:55:58.753Z,49.80
2019-03-13T04:02:44.000Z,49.60
2019-03-13T04:09:29.220Z,48.60
2019-03-13T04:16:14.188Z,47.80
2019-03-13T04:22:59.053Z,47.10
2019-03-13T04:29:43.965Z,46.70
2019-03-13T04:36:28.820Z,44.70
2019-03-13T04:43:13.664Z,42.80
2019-03-13T04:49:58.615Z,42.60
2019-03-13T04:56:43.471Z,43.10
2019-03-13T05:03:28.395Z,43.40
2019-03-13T05:10:13.247Z,44.00
2019-03-13T05:16:58.098Z,45.20
2019-03-13T05:23:43.019Z,45.80
2019-03-13T05:30:27.885Z,46.50
2019-03-13T05:37:12.798Z,47.00
2019-03-13T05:43:58.755Z,46.70
2019-03-13T05:50:43.986Z,46.60
2019-03-13T05:57:28.963Z,45.50
2019-03-13T06:04:13.890Z,45.70
2019-03-13T06:10:58.739Z,45.60
2019-03-13T06:17:43.650Z,45.60
2019-03-13T06:24:28.511Z,45.60
2019-03-13T06:31:13.358Z,46.00
2019-03-13T06:37:58.203Z,45.30
2019-03-13T06:44:43.219Z,44.50
2019-03-13T06:51:28.072Z,45.50
2019-03-13T06:58:13.083Z,48.80
2019-03-13T07:04:59.687Z,45.90
2019-03-13T07:11:50.700Z,48.30
2019-03-13T07:18:37.519Z,29.60
2019-03-13T07:25:33.810Z,24.10
2019-03-13T07:32:26.496Z,25.70
2019-03-13T07:39:22.115Z,24.80
2019-03-13T07:46:17.761Z,22.20
2019-03-13T07:53:04.327Z,26.30
2019-03-13T07:59:56.966Z,21.50
2019-03-13T08:06:52.607Z,19.80
2019-03-13T08:13:45.143Z,19.60
2019-03-13T08:20:34.263Z,18.20
2019-03-13T08:27:20.957Z,18.60
2019-03-13T08:34:22.539Z,17.80
2019-03-13T08:41:11.831Z,18.50
2019-03-13T08:48:03.826Z,19.80
2019-03-13T08:54:50.324Z,20.90
2019-03-13T09:01:37.898Z,19.50
2019-03-13T09:08:33.499Z,19.10
2019-03-13T09:15:28.910Z,21.80
2019-03-13T09:22:15.478Z,19.10
2019-03-13T09:29:19.392Z,17.60
2019-03-13T09:36:18.168Z,16.70
2019-03-13T09:43:13.671Z,17.20
2019-03-13T09:50:16.653Z,18.00
2019-03-13T09:57:12.439Z,17.20
2019-03-13T10:03:58.936Z,17.80
2019-03-13T10:11:01.719Z,18.10
2019-03-13T10:17:48.291Z,19.00
2019-03-13T10:24:43.267Z,18.80
2019-03-13T10:31:48.236Z,19.00
2019-03-13T10:38:34.907Z,19.70
2019-03-13T10:45:21.478Z,21.50
2019-03-13T10:52:08.211Z,21.70
2019-03-13T10:59:12.483Z,20.90
2019-03-13T11:05:59.344Z,21.50
2019-03-13T11:12:48.414Z,22.30
2019-03-13T11:19:34.119Z,21.50
2019-03-13T11:26:20.707Z,22.60
2019-03-13T11:33:38.689Z,23.70
2019-03-13T11:40:28.399Z,23.50
2019-03-13T11:47:41.961Z,24.60
2019-03-13T11:54:21.455Z,25.20
2019-03-13T12:01:08.355Z,25.20
2019-03-13T12:08:00.711Z,25.50
2019-03-13T12:15:02.477Z,25.20
2019-03-13T12:21:52.387Z,24.80
2019-03-13T12:28:42.069Z,24.50
2019-03-13T12:35:34.452Z,24.10
2019-03-13T12:42:39.332Z,23.70
2019-03-13T12:49:28.597Z,23.70
2019-03-13T12:56:18.175Z,24.30
2019-03-13T13:03:21.142Z,24.50
2019-03-13T13:10:17.262Z,25.00
2019-03-13T13:17:12.802Z,25.10
2019-03-13T13:23:59.199Z,25.80
2019-03-13T13:30:44.271Z,29.50
2019-03-13T13:37:29.803Z,34.40
2019-03-13T13:44:15.011Z,41.40
2019-03-13T13:51:01.238Z,44.40
2019-03-13T13:57:46.092Z,40.60
2019-03-13T14:04:30.948Z,35.40
2019-03-13T14:11:15.976Z,33.70
2019-03-13T14:18:00.902Z,31.40
2019-03-13T14:24:45.834Z,31.70
2019-03-13T14:31:30.820Z,32.80
2019-03-13T14:38:15.677Z,32.50
2019-03-13T14:45:00.606Z,31.70
2019-03-13T14:51:45.825Z,29.00
2019-03-13T14:58:30.687Z,26.80
2019-03-13T15:05:15.761Z,26.30
2019-03-13T15:12:00.662Z,26.70
2019-03-13T15:18:45.519Z,26.70
2019-03-13T15:25:30.367Z,26.90
2019-03-13T15:32:15.363Z,27.80
2019-03-13T15:39:00.215Z,27.90
2019-03-13T15:45:45.466Z,27.70
2019-03-13T15:52:30.469Z,27.80
2019-03-13T15:59:15.386Z,28.50
2019-03-13T16:06:00.250Z,29.00
2019-03-13T16:12:45.318Z,29.10
2019-03-13T16:19:30.568Z,29.40
2019-03-13T16:26:15.523Z,29.90
2019-03-13T16:33:00.474Z,32.80
2019-03-13T16:39:45.367Z,33.80
2019-03-13T16:46:30.287Z,34.20
2019-03-13T16:53:15.470Z,34.30
2019-03-13T17:00:01.492Z,34.60
2019-03-13T17:06:48.643Z,35.20
2019-03-13T17:13:34.152Z,35.40
2019-03-13T17:20:26.197Z,36.00
2019-03-13T17:27:10.724Z,37.20
2019-03-13T17:33:57.516Z,38.00
2019-03-13T17:40:43.974Z,39.30
2019-03-13T17:47:28.823Z,40.40
2019-03-13T17:54:13.754Z,40.90
2019-03-13T18:00:58.984Z,42.50
2019-03-13T18:07:44.028Z,43.60
2019-03-13T18:14:32.090Z,44.40
2019-03-13T18:21:15.540Z,45.40
2019-03-13T18:28:00.593Z,46.50
2019-03-13T18:34:45.435Z,45.60
2019-03-13T18:41:30.279Z,45.60
2019-03-13T18:48:15.131Z,46.20
2019-03-13T18:55:00.167Z,46.20
2019-03-13T19:01:45.488Z,47.70
2019-03-13T19:08:30.426Z,48.00
2019-03-13T19:15:19.452Z,48.60
2019-03-13T19:22:04.452Z,50.50
2019-03-13T19:28:49.512Z,51.80
2019-03-13T19:35:34.593Z,52.80
2019-03-13T19:42:19.577Z,53.50
2019-03-13T19:49:04.571Z,53.90
2019-03-13T19:55:49.497Z,54.20
2019-03-13T20:02:38.819Z,54.50
2019-03-13T20:09:23.983Z,54.50
2019-03-13T20:16:08.969Z,54.70
2019-03-13T20:22:59.415Z,55.00
2019-03-13T20:29:44.382Z,54.80
2019-03-13T20:36:29.354Z,55.10
2019-03-13T20:43:15.542Z,55.10
2019-03-13T20:50:00.741Z,54.50
2019-03-13T20:56:45.745Z,54.50
2019-03-13T21:03:30.638Z,54.40
2019-03-13T21:10:16.918Z,54.80
2019-03-13T21:17:01.875Z,55.50
2019-03-13T21:23:48.946Z,56.80
2019-03-13T21:30:35.055Z,60.00
2019-03-13T21:37:19.894Z,61.20
2019-03-13T21:44:06.365Z,62.00
2019-03-13T21:50:51.783Z,62.70
2019-03-13T21:57:36.700Z,62.70
2019-03-13T22:04:24.483Z,62.00
2019-03-13T22:11:09.425Z,62.30
2019-03-13T22:17:54.450Z,62.70
2019-03-13T22:24:39.387Z,62.70
2019-03-13T22:31:24.646Z,62.60
2019-03-13T22:38:09.628Z,62.50
2019-03-13T22:44:54.871Z,62.60
2019-03-13T22:51:39.814Z,62.30
2019-03-13T22:58:24.943Z,62.40
2019-03-13T23:05:10.333Z,62.10
2019-03-13T23:11:55.560Z,61.80
2019-03-13T23:18:40.567Z,62.40
2019-03-13T23:25:25.551Z,62.10
2019-03-13T23:32:10.402Z,61.70
2019-03-13T23:38:55.326Z,61.60
2019-03-13T23:45:40.505Z,60.90
2019-03-13T23:52:25.952Z,61.30
2019-03-13T23:59:10.910Z,61.60
